createdAt,value
2019-03-21T00:00:00.017Z,88.92
2019-03-21T00:01:00.106Z,89.29
2019-03-21T00:02:00.189Z,89.11
2019-03-21T00:03:00.330Z,89.39
2019-03-21T00:04:00.376Z,89.58
2019-03-21T00:05:00.462Z,89.48
2019-03-21T00:06:00.551Z,89.01
2019-03-21T00:07:00.637Z,89.11
2019-03-21T00:08:00.728Z,89.20
2019-03-21T00:09:00.816Z,89.11
2019-03-21T00:10:00.901Z,89.67
2019-03-21T00:11:00.991Z,89.58
2019-03-21T00:12:01.077Z,89.48
2019-03-21T00:13:01.163Z,89.58
2019-03-21T00:14:06.917Z,89.48
2019-03-21T00:15:01.352Z,89.48
2019-03-21T00:16:01.444Z,89.29
2019-03-21T00:17:01.532Z,89.11
2019-03-21T00:18:01.621Z,89.58
2019-03-21T00:19:01.703Z,89.39
2019-03-21T00:20:01.799Z,89.11
2019-03-21T00:21:01.877Z,88.96
2019-03-21T00:22:01.964Z,89.29
2019-03-21T00:23:02.051Z,89.48
2019-03-21T00:24:02.139Z,89.44
2019-03-21T00:25:02.223Z,89.58
2019-03-21T00:26:02.313Z,89.63
2019-03-21T00:27:02.389Z,89.82
2019-03-21T00:28:02.476Z,89.72
2019-03-21T00:29:02.565Z,89.63
2019-03-21T00:30:02.650Z,89.72
2019-03-21T00:31:02.737Z,89.53
2019-03-21T00:32:02.827Z,89.63
2019-03-21T00:33:02.916Z,89.53
2019-03-21T00:34:02.998Z,89.82
2019-03-21T00:35:03.085Z,89.72
2019-03-21T00:36:03.172Z,90.20
2019-03-21T00:37:03.251Z,89.82
2019-03-21T00:38:03.337Z,89.82
2019-03-21T00:39:03.426Z,90.10
2019-03-21T00:40:03.516Z,90.29
2019-03-21T00:41:03.666Z,90.01
2019-03-21T00:42:03.683Z,90.29
2019-03-21T00:43:03.768Z,90.20
2019-03-21T00:44:03.857Z,90.20
2019-03-21T00:45:03.945Z,89.91
2019-03-21T00:46:04.029Z,90.48
2019-03-21T00:47:04.118Z,90.39
2019-03-21T00:48:04.201Z,90.29
2019-03-21T00:49:12.959Z,90.39
2019-03-21T00:50:04.422Z,90.39
2019-03-21T00:51:04.501Z,90.39
2019-03-21T00:52:04.588Z,90.29
2019-03-21T00:53:04.677Z,90.20
2019-03-21T00:54:04.765Z,90.39
2019-03-21T00:55:04.857Z,90.29
2019-03-21T00:56:04.938Z,89.82
2019-03-21T00:57:05.051Z,90.10
2019-03-21T00:58:05.141Z,89.82
2019-03-21T00:59:05.206Z,90.01
2019-03-21T01:00:05.292Z,90.01
2019-03-21T01:01:05.378Z,90.10
2019-03-21T01:02:05.465Z,89.72
2019-03-21T01:03:05.560Z,89.91
2019-03-21T01:04:05.645Z,89.63
2019-03-21T01:05:05.729Z,89.63
2019-03-21T01:06:05.817Z,90.10
2019-03-21T01:07:05.906Z,90.10
2019-03-21T01:08:05.993Z,90.01
2019-03-21T01:09:06.082Z,89.44
2019-03-21T01:10:06.179Z,90.10
2019-03-21T01:11:06.257Z,90.29
2019-03-21T01:12:06.369Z,90.29
2019-03-21T01:13:06.432Z,89.91
2019-03-21T01:14:06.524Z,90.10
2019-03-21T01:15:06.608Z,90.39
2019-03-21T01:16:06.695Z,90.01
2019-03-21T01:17:06.784Z,90.29
2019-03-21T01:18:06.870Z,90.39
2019-03-21T01:19:06.959Z,90.10
2019-03-21T01:20:07.064Z,90.39
2019-03-21T01:21:07.129Z,91.10
2019-03-21T01:22:07.208Z,91.29
2019-03-21T01:23:07.292Z,91.95
2019-03-21T01:24:07.376Z,92.14
2019-03-21T01:25:07.463Z,92.24
2019-03-21T01:26:07.549Z,92.33
2019-03-21T01:27:07.638Z,92.66
2019-03-21T01:28:07.722Z,92.85
2019-03-21T01:29:07.816Z,93.04
2019-03-21T01:30:07.903Z,92.47
2019-03-21T01:31:07.989Z,92.47
2019-03-21T01:32:08.143Z,92.28
2019-03-21T01:33:08.170Z,92.00
2019-03-21T01:34:08.256Z,92.00
2019-03-21T01:35:08.338Z,92.28
2019-03-21T01:36:08.452Z,92.00
2019-03-21T01:37:08.526Z,92.38
2019-03-21T01:38:08.611Z,92.47
2019-03-21T01:39:08.703Z,92.28
2019-03-21T01:40:08.787Z,91.71
2019-03-21T01:41:08.872Z,92.00
2019-03-21T01:42:09.047Z,91.81
2019-03-21T01:43:09.043Z,91.71
2019-03-21T01:44:09.127Z,91.62
2019-03-21T01:45:09.214Z,91.81
2019-03-21T01:46:09.296Z,91.71
2019-03-21T01:47:09.376Z,91.43
2019-03-21T01:48:09.466Z,91.52
2019-03-21T01:49:09.554Z,92.00
2019-03-21T01:50:09.646Z,91.81
2019-03-21T01:51:09.726Z,91.67
2019-03-21T01:52:09.817Z,91.43
2019-03-21T01:53:09.904Z,91.38
2019-03-21T01:54:09.990Z,91.57
2019-03-21T01:55:11.413Z,91.38
2019-03-21T01:56:10.167Z,91.38
2019-03-21T01:57:10.255Z,91.67
2019-03-21T01:58:10.332Z,91.71
2019-03-21T01:59:10.506Z,91.48
2019-03-21T02:00:10.455Z,91.38
2019-03-21T02:01:10.555Z,91.67
2019-03-21T02:02:11.515Z,91.76
2019-03-21T02:03:10.733Z,92.05
2019-03-21T02:04:10.825Z,92.24
2019-03-21T02:05:10.942Z,91.95
2019-03-21T02:06:11.031Z,91.76
2019-03-21T02:07:11.116Z,92.14
2019-03-21T02:08:11.207Z,92.14
2019-03-21T02:09:11.298Z,92.33
2019-03-21T02:10:11.385Z,92.24
2019-03-21T02:11:11.482Z,92.14
2019-03-21T02:12:13.445Z,92.43
2019-03-21T02:13:11.642Z,91.76
2019-03-21T02:14:11.731Z,91.95
2019-03-21T02:15:11.817Z,91.67
2019-03-21T02:16:11.897Z,91.86
2019-03-21T02:17:11.994Z,91.76
2019-03-21T02:18:12.081Z,91.95
2019-03-21T02:19:12.170Z,91.67
2019-03-21T02:20:12.257Z,92.33
2019-03-21T02:21:12.335Z,92.33
2019-03-21T02:22:12.418Z,93.46
2019-03-21T02:23:12.510Z,93.27
2019-03-21T02:24:12.595Z,93.37
2019-03-21T02:25:12.681Z,93.08
2019-03-21T02:26:12.767Z,93.18
2019-03-21T02:27:12.852Z,93.08
2019-03-21T02:28:12.973Z,93.27
2019-03-21T02:29:13.064Z,93.65
2019-03-21T02:30:13.153Z,93.37
2019-03-21T02:31:13.235Z,93.37
2019-03-21T02:32:13.327Z,93.46
2019-03-21T02:33:13.417Z,93.27
2019-03-21T02:34:13.504Z,93.56
2019-03-21T02:35:13.594Z,92.90
2019-03-21T02:36:13.689Z,93.08
2019-03-21T02:37:13.769Z,92.71
2019-03-21T02:38:13.851Z,92.61
2019-03-21T02:39:13.954Z,92.90
2019-03-21T02:40:14.023Z,92.43
2019-03-21T02:41:14.118Z,92.43
2019-03-21T02:42:14.202Z,92.05
2019-03-21T02:43:14.293Z,92.24
2019-03-21T02:44:14.373Z,92.14
2019-03-21T02:45:14.497Z,92.24
2019-03-21T02:46:14.591Z,92.14
2019-03-21T02:47:14.628Z,92.24
2019-03-21T02:48:14.714Z,92.24
2019-03-21T02:49:14.799Z,92.24
2019-03-21T02:50:14.885Z,92.33
2019-03-21T02:51:14.986Z,92.24
2019-03-21T02:52:15.214Z,92.33
2019-03-21T02:53:15.170Z,92.24
2019-03-21T02:54:15.262Z,92.14
2019-03-21T02:55:15.348Z,92.61
2019-03-21T02:56:15.437Z,92.61
2019-03-21T02:57:15.522Z,92.43
2019-03-21T02:58:15.612Z,92.33
2019-03-21T02:59:15.693Z,92.05
2019-03-21T03:00:15.779Z,92.33
2019-03-21T03:01:15.868Z,92.05
2019-03-21T03:02:15.946Z,92.43
2019-03-21T03:03:16.040Z,92.33
2019-03-21T03:04:16.128Z,91.86
2019-03-21T03:05:16.214Z,92.14
2019-03-21T03:06:16.302Z,91.95
2019-03-21T03:07:16.396Z,92.05
2019-03-21T03:08:16.483Z,92.24
2019-03-21T03:09:16.547Z,92.24
2019-03-21T03:10:16.636Z,92.52
2019-03-21T03:11:17.510Z,92.33
2019-03-21T03:12:16.848Z,92.33
2019-03-21T03:13:16.985Z,92.05
2019-03-21T03:14:17.067Z,91.67
2019-03-21T03:15:22.916Z,91.67
2019-03-21T03:16:17.266Z,91.86
2019-03-21T03:17:17.322Z,91.57
2019-03-21T03:18:17.400Z,92.43
2019-03-21T03:19:17.488Z,92.14
2019-03-21T03:20:17.564Z,92.24
2019-03-21T03:21:17.658Z,92.24
2019-03-21T03:22:17.735Z,92.71
2019-03-21T03:23:17.832Z,92.33
2019-03-21T03:24:17.910Z,92.43
2019-03-21T03:25:17.998Z,92.43
2019-03-21T03:26:18.090Z,92.43
2019-03-21T03:27:18.179Z,92.61
2019-03-21T03:28:18.266Z,92.43
2019-03-21T03:29:18.398Z,92.14
2019-03-21T03:30:18.473Z,92.24
2019-03-21T03:31:18.561Z,92.33
2019-03-21T03:32:18.649Z,92.24
2019-03-21T03:33:18.722Z,91.95
2019-03-21T03:34:18.829Z,91.95
2019-03-21T03:35:19.030Z,92.24
2019-03-21T03:36:19.009Z,92.61
2019-03-21T03:37:19.192Z,92.52
2019-03-21T03:38:19.139Z,92.38
2019-03-21T03:39:19.359Z,92.43
2019-03-21T03:40:19.337Z,92.14
2019-03-21T03:41:19.428Z,92.43
2019-03-21T03:42:19.507Z,92.33
2019-03-21T03:43:19.600Z,91.86
2019-03-21T03:44:19.679Z,92.10
2019-03-21T03:45:19.765Z,91.95
2019-03-21T03:46:19.847Z,92.14
2019-03-21T03:47:19.945Z,91.95
2019-03-21T03:48:20.398Z,92.10
2019-03-21T03:49:20.115Z,92.10
2019-03-21T03:50:20.199Z,91.91
2019-03-21T03:51:20.288Z,92.14
2019-03-21T03:52:20.366Z,91.91
2019-03-21T03:53:20.454Z,92.00
2019-03-21T03:54:20.542Z,92.10
2019-03-21T03:55:20.629Z,92.29
2019-03-21T03:56:20.715Z,92.38
2019-03-21T03:57:20.796Z,92.66
2019-03-21T03:58:20.876Z,92.38
2019-03-21T03:59:21.070Z,92.38
2019-03-21T04:00:21.122Z,93.04
2019-03-21T04:01:21.084Z,92.85
2019-03-21T04:02:21.172Z,92.85
2019-03-21T04:03:21.262Z,92.85
2019-03-21T04:04:21.341Z,92.76
2019-03-21T04:05:21.426Z,92.85
2019-03-21T04:06:21.513Z,93.04
2019-03-21T04:07:21.606Z,92.66
2019-03-21T04:08:21.692Z,92.85
2019-03-21T04:09:21.777Z,92.85
2019-03-21T04:10:21.868Z,93.04
2019-03-21T04:11:21.952Z,92.85
2019-03-21T04:12:22.043Z,92.19
2019-03-21T04:13:22.126Z,92.61
2019-03-21T04:14:22.207Z,92.47
2019-03-21T04:15:22.288Z,92.38
2019-03-21T04:16:22.375Z,92.29
2019-03-21T04:17:22.493Z,92.85
2019-03-21T04:18:22.567Z,92.47
2019-03-21T04:19:22.658Z,92.66
2019-03-21T04:20:22.746Z,92.85
2019-03-21T04:21:22.832Z,92.57
2019-03-21T04:22:23.035Z,92.85
2019-03-21T04:23:22.989Z,92.57
2019-03-21T04:24:23.073Z,92.76
2019-03-21T04:25:23.159Z,92.85
2019-03-21T04:26:23.251Z,92.85
2019-03-21T04:27:23.337Z,92.66
2019-03-21T04:28:23.423Z,92.85
2019-03-21T04:29:23.507Z,92.94
2019-03-21T04:30:23.598Z,92.85
2019-03-21T04:31:23.688Z,92.85
2019-03-21T04:32:23.779Z,92.29
2019-03-21T04:33:23.860Z,92.38
2019-03-21T04:34:23.948Z,92.57
2019-03-21T04:35:24.036Z,92.19
2019-03-21T04:36:24.125Z,92.66
2019-03-21T04:37:24.220Z,92.76
2019-03-21T04:38:24.313Z,92.76
2019-03-21T04:39:24.425Z,92.38
2019-03-21T04:40:24.497Z,92.66
2019-03-21T04:41:24.641Z,92.85
2019-03-21T04:42:24.678Z,92.94
2019-03-21T04:43:24.769Z,92.94
2019-03-21T04:44:24.854Z,92.38
2019-03-21T04:45:24.938Z,92.85
2019-03-21T04:46:25.032Z,92.85
2019-03-21T04:47:25.113Z,92.94
2019-03-21T04:48:25.202Z,92.57
2019-03-21T04:49:25.289Z,92.76
2019-03-21T04:50:25.374Z,92.76
2019-03-21T04:51:25.460Z,92.57
2019-03-21T04:52:25.540Z,93.04
2019-03-21T04:53:25.639Z,92.85
2019-03-21T04:54:25.722Z,92.85
2019-03-21T04:55:25.810Z,92.85
2019-03-21T04:56:25.898Z,92.94
2019-03-21T04:57:25.987Z,92.85
2019-03-21T04:58:26.061Z,92.19
2019-03-21T04:59:26.147Z,92.38
2019-03-21T05:00:26.233Z,92.00
2019-03-21T05:01:26.354Z,92.19
2019-03-21T05:02:26.460Z,92.29
2019-03-21T05:03:26.494Z,92.19
2019-03-21T05:04:26.588Z,92.19
2019-03-21T05:05:26.685Z,92.19
2019-03-21T05:06:26.773Z,92.29
2019-03-21T05:07:27.613Z,92.94
2019-03-21T05:08:26.974Z,92.85
2019-03-21T05:09:27.114Z,92.94
2019-03-21T05:10:27.190Z,92.38
2019-03-21T05:11:27.289Z,92.76
2019-03-21T05:12:27.377Z,92.57
2019-03-21T05:13:27.465Z,92.94
2019-03-21T05:14:27.553Z,92.66
2019-03-21T05:15:27.640Z,92.94
2019-03-21T05:16:27.727Z,92.38
2019-03-21T05:17:27.815Z,92.38
2019-03-21T05:18:27.903Z,92.38
2019-03-21T05:19:27.990Z,91.91
2019-03-21T05:20:28.078Z,92.10
2019-03-21T05:21:28.164Z,92.19
2019-03-21T05:22:28.256Z,92.29
2019-03-21T05:23:28.335Z,92.19
2019-03-21T05:24:28.456Z,91.91
2019-03-21T05:25:28.549Z,91.91
2019-03-21T05:26:28.671Z,92.00
2019-03-21T05:27:28.804Z,92.00
2019-03-21T05:28:28.898Z,92.19
2019-03-21T05:29:29.136Z,92.19
2019-03-21T05:30:29.270Z,92.47
2019-03-21T05:33:00.779Z,92.10
2019-03-21T05:34:01.583Z,92.57
2019-03-21T05:35:00.926Z,92.19
2019-03-21T05:36:01.263Z,92.66
2019-03-21T05:37:01.204Z,92.66
2019-03-21T05:38:01.236Z,92.94
2019-03-21T05:39:01.335Z,92.94
2019-03-21T05:40:01.430Z,92.19
2019-03-21T05:41:01.505Z,92.47
2019-03-21T05:42:01.592Z,92.85
2019-03-21T05:43:01.683Z,92.19
2019-03-21T05:44:01.769Z,92.47
2019-03-21T05:45:01.860Z,92.10
2019-03-21T05:46:02.831Z,92.29
2019-03-21T05:47:02.041Z,92.00
2019-03-21T05:48:02.127Z,92.57
2019-03-21T05:49:02.213Z,92.29
2019-03-21T05:50:02.320Z,92.19
2019-03-21T05:51:02.426Z,92.19
2019-03-21T05:52:02.534Z,92.00
2019-03-21T05:53:02.593Z,92.29
2019-03-21T05:54:02.671Z,92.47
2019-03-21T05:55:02.752Z,91.72
2019-03-21T05:56:02.871Z,91.53
2019-03-21T05:57:03.021Z,91.72
2019-03-21T05:58:03.017Z,91.86
2019-03-21T05:59:03.129Z,92.19
2019-03-21T06:00:03.208Z,92.38
2019-03-21T06:01:03.295Z,92.38
2019-03-21T06:02:03.385Z,91.53
2019-03-21T06:03:03.492Z,91.62
2019-03-21T06:04:03.576Z,91.86
2019-03-21T06:05:03.664Z,91.72
2019-03-21T06:06:03.765Z,92.05
2019-03-21T06:07:03.836Z,91.76
2019-03-21T06:08:03.924Z,92.00
2019-03-21T06:09:04.010Z,91.86
2019-03-21T06:10:04.096Z,91.67
2019-03-21T06:11:04.184Z,91.57
2019-03-21T06:12:04.287Z,91.29
2019-03-21T06:13:04.429Z,91.95
2019-03-21T06:14:04.578Z,91.67
2019-03-21T06:15:04.627Z,91.38
2019-03-21T06:16:04.615Z,91.48
2019-03-21T06:17:04.703Z,91.10
2019-03-21T06:18:05.571Z,91.48
2019-03-21T06:19:04.971Z,91.38
2019-03-21T06:20:05.126Z,91.95
2019-03-21T06:21:05.099Z,91.86
2019-03-21T06:22:05.180Z,91.67
2019-03-21T06:23:05.271Z,91.38
2019-03-21T06:24:05.359Z,91.29
2019-03-21T06:25:05.448Z,91.67
2019-03-21T06:26:05.562Z,91.48
2019-03-21T06:27:13.989Z,91.48
2019-03-21T06:28:05.707Z,91.48
2019-03-21T06:29:05.796Z,90.81
2019-03-21T06:30:05.879Z,91.29
2019-03-21T06:31:05.973Z,91.57
2019-03-21T06:32:06.056Z,91.48
2019-03-21T06:33:06.641Z,91.38
2019-03-21T06:34:06.228Z,91.71
2019-03-21T06:35:06.313Z,90.95
2019-03-21T06:36:06.432Z,91.14
2019-03-21T06:37:06.628Z,90.58
2019-03-21T06:38:06.646Z,90.01
2019-03-21T06:39:06.739Z,89.01
2019-03-21T06:40:07.047Z,89.01
2019-03-21T06:41:07.048Z,88.25
2019-03-21T06:42:07.048Z,87.49
2019-03-21T06:43:07.112Z,87.25
2019-03-21T06:44:07.200Z,86.78
2019-03-21T06:45:07.623Z,85.55
2019-03-21T06:46:07.728Z,85.55
2019-03-21T06:47:07.442Z,84.50
2019-03-21T06:48:07.539Z,84.31
2019-03-21T06:49:07.610Z,83.46
2019-03-21T06:50:07.696Z,83.08
2019-03-21T06:51:07.785Z,82.84
2019-03-21T06:52:07.875Z,82.36
2019-03-21T06:53:07.961Z,81.98
2019-03-21T06:54:08.051Z,81.98
2019-03-21T06:55:08.142Z,81.41
2019-03-21T06:56:08.230Z,81.32
2019-03-21T06:57:08.351Z,80.84
2019-03-21T06:58:08.421Z,80.88
2019-03-21T06:59:08.523Z,80.60
2019-03-21T07:00:08.597Z,80.79
2019-03-21T07:01:08.689Z,80.88
2019-03-21T07:02:08.778Z,80.13
2019-03-21T07:03:08.870Z,80.41
2019-03-21T07:04:08.991Z,80.13
2019-03-21T07:05:09.064Z,79.65
2019-03-21T07:06:09.154Z,79.55
2019-03-21T07:07:09.243Z,79.27
2019-03-21T07:08:09.332Z,79.17
2019-03-21T07:09:09.427Z,79.08
2019-03-21T07:10:09.517Z,79.17
2019-03-21T07:11:09.614Z,79.27
2019-03-21T07:12:09.701Z,78.80
2019-03-21T07:13:09.793Z,79.08
2019-03-21T07:14:09.887Z,78.70
2019-03-21T07:15:09.981Z,78.51
2019-03-21T07:16:10.080Z,78.32
2019-03-21T07:17:10.169Z,78.17
2019-03-21T07:18:10.284Z,77.94
2019-03-21T07:19:10.532Z,78.03
2019-03-21T07:20:10.468Z,78.03
2019-03-21T07:21:10.630Z,78.80
2019-03-21T07:22:12.428Z,78.80
2019-03-21T07:23:10.788Z,78.61
2019-03-21T07:24:10.863Z,77.94
2019-03-21T07:25:11.881Z,78.23
2019-03-21T07:26:11.095Z,79.08
2019-03-21T07:27:11.181Z,79.27
2019-03-21T07:28:11.295Z,78.99
2019-03-21T07:29:11.410Z,79.55
2019-03-21T07:30:11.466Z,79.55
2019-03-21T07:31:11.586Z,79.17
2019-03-21T07:32:11.640Z,79.17
2019-03-21T07:33:11.731Z,79.55
2019-03-21T07:34:11.820Z,79.65
2019-03-21T07:35:11.909Z,79.55
2019-03-21T07:36:12.000Z,79.46
2019-03-21T07:37:12.097Z,79.84
2019-03-21T07:38:12.192Z,79.65
2019-03-21T07:39:12.276Z,79.74
2019-03-21T07:40:12.369Z,80.41
2019-03-21T07:41:12.458Z,80.79
2019-03-21T07:42:12.552Z,80.60
2019-03-21T07:43:12.643Z,81.07
2019-03-21T07:44:12.743Z,80.88
2019-03-21T07:45:12.836Z,80.98
2019-03-21T07:46:12.922Z,81.07
2019-03-21T07:47:13.474Z,80.03
2019-03-21T07:48:13.123Z,80.32
2019-03-21T07:49:13.210Z,79.46
2019-03-21T07:50:13.301Z,79.79
2019-03-21T07:51:13.391Z,79.31
2019-03-21T07:52:13.482Z,79.03
2019-03-21T07:53:13.602Z,78.74
2019-03-21T07:54:13.661Z,78.93
2019-03-21T07:55:13.752Z,78.27
2019-03-21T07:57:54.208Z,78.27
2019-03-21T07:58:54.295Z,78.36
2019-03-21T07:59:54.394Z,78.36
2019-03-21T08:00:54.486Z,77.98
2019-03-21T08:01:54.571Z,78.45
2019-03-21T08:02:54.661Z,78.27
2019-03-21T08:03:54.749Z,78.27
2019-03-21T08:04:54.839Z,78.36
2019-03-21T08:05:54.949Z,78.36
2019-03-21T08:06:55.056Z,78.45
2019-03-21T08:07:55.159Z,78.74
2019-03-21T08:08:55.248Z,79.12
2019-03-21T08:09:55.335Z,79.60
2019-03-21T08:10:55.423Z,79.41
2019-03-21T08:11:55.527Z,79.69
2019-03-21T08:12:55.616Z,79.60
2019-03-21T08:13:55.706Z,79.12
2019-03-21T08:14:55.796Z,79.16
2019-03-21T08:15:55.889Z,79.44
2019-03-21T08:16:55.978Z,79.16
2019-03-21T08:17:56.067Z,78.40
2019-03-21T08:18:56.161Z,78.50
2019-03-21T08:19:56.245Z,77.64
2019-03-21T08:20:59.785Z,78.02
2019-03-21T08:21:56.421Z,77.92
2019-03-21T08:22:56.514Z,77.92
2019-03-21T08:23:56.603Z,77.73
2019-03-21T08:24:56.691Z,77.73
2019-03-21T08:25:56.777Z,77.55
2019-03-21T08:26:56.884Z,77.73
2019-03-21T08:27:56.973Z,77.92
2019-03-21T08:28:57.272Z,76.97
2019-03-21T08:29:57.209Z,76.59
2019-03-21T08:30:57.282Z,76.63
2019-03-21T08:31:57.376Z,76.63
2019-03-21T08:32:57.465Z,75.87
2019-03-21T08:33:57.551Z,75.59
2019-03-21T08:34:57.642Z,76.06
2019-03-21T08:35:57.804Z,75.87
2019-03-21T08:36:57.828Z,75.68
2019-03-21T08:37:57.911Z,75.78
2019-03-21T08:38:58.002Z,75.49
2019-03-21T08:39:58.095Z,75.78
2019-03-21T08:40:58.184Z,75.40
2019-03-21T08:41:58.273Z,74.92
2019-03-21T08:42:58.366Z,75.34
2019-03-21T08:43:58.457Z,75.05
2019-03-21T08:44:58.548Z,74.10
2019-03-21T08:45:58.653Z,74.10
2019-03-21T08:46:58.739Z,72.86
2019-03-21T08:47:58.832Z,73.06
2019-03-21T08:48:59.115Z,72.39
2019-03-21T08:49:59.273Z,72.30
2019-03-21T08:51:07.705Z,72.01
2019-03-21T08:51:59.248Z,71.91
2019-03-21T08:52:59.339Z,71.91
2019-03-21T08:53:59.427Z,71.57
2019-03-21T08:54:59.516Z,71.86
2019-03-21T08:55:59.607Z,71.67
2019-03-21T08:56:59.699Z,72.05
2019-03-21T08:57:59.787Z,71.67
2019-03-21T08:59:01.239Z,70.81
2019-03-21T09:00:00.029Z,70.62
2019-03-21T09:01:00.127Z,70.52
2019-03-21T09:02:00.211Z,70.37
2019-03-21T09:03:00.303Z,69.79
2019-03-21T09:04:00.395Z,69.60
2019-03-21T09:05:00.485Z,69.70
2019-03-21T09:06:00.593Z,70.08
2019-03-21T09:07:00.680Z,69.42
2019-03-21T09:08:00.772Z,69.42
2019-03-21T09:09:00.866Z,69.60
2019-03-21T09:10:01.217Z,69.13
2019-03-21T09:11:01.142Z,69.23
2019-03-21T09:12:01.267Z,68.94
2019-03-21T09:13:01.197Z,68.56
2019-03-21T09:14:01.283Z,67.89
2019-03-21T09:15:01.375Z,68.12
2019-03-21T09:16:01.465Z,68.30
2019-03-21T09:17:01.557Z,67.93
2019-03-21T09:18:01.650Z,67.07
2019-03-21T09:19:01.736Z,66.69
2019-03-21T09:20:01.826Z,66.78
2019-03-21T09:21:01.916Z,67.07
2019-03-21T09:22:02.006Z,66.97
2019-03-21T09:23:02.099Z,66.91
2019-03-21T09:24:02.188Z,67.00
2019-03-21T09:25:04.679Z,67.00
2019-03-21T09:26:02.378Z,66.91
2019-03-21T09:27:02.467Z,66.91
2019-03-21T09:28:03.188Z,66.63
2019-03-21T09:29:02.647Z,66.82
2019-03-21T09:30:02.739Z,66.24
2019-03-21T09:31:02.837Z,65.96
2019-03-21T09:32:03.062Z,66.15
2019-03-21T09:33:03.295Z,65.80
2019-03-21T09:34:03.221Z,65.42
2019-03-21T09:35:03.191Z,65.52
2019-03-21T09:36:03.338Z,64.65
2019-03-21T09:37:04.171Z,64.85
2019-03-21T09:38:03.519Z,64.37
2019-03-21T09:39:03.609Z,64.28
2019-03-21T09:40:03.701Z,64.47
2019-03-21T09:41:03.797Z,64.28
2019-03-21T09:42:03.888Z,63.80
2019-03-21T09:43:03.979Z,63.99
2019-03-21T09:44:04.068Z,63.16
2019-03-21T09:45:04.159Z,62.88
2019-03-21T09:46:04.295Z,62.11
2019-03-21T09:47:04.368Z,61.92
2019-03-21T09:48:04.458Z,61.83
2019-03-21T09:49:04.550Z,61.92
2019-03-21T09:50:04.645Z,61.35
2019-03-21T09:51:04.737Z,60.68
2019-03-21T09:52:04.831Z,61.35
2019-03-21T09:53:05.080Z,60.97
2019-03-21T09:54:09.601Z,60.68
2019-03-21T09:55:05.212Z,60.11
2019-03-21T09:56:06.171Z,61.00
2019-03-21T09:57:05.272Z,61.57
2019-03-21T09:58:05.364Z,60.90
2019-03-21T09:59:05.453Z,60.52
2019-03-21T10:00:05.545Z,59.76
2019-03-21T10:01:05.639Z,59.38
2019-03-21T10:02:05.732Z,58.04
2019-03-21T10:03:05.825Z,57.94
2019-03-21T10:04:05.915Z,57.46
2019-03-21T10:05:06.004Z,57.09
2019-03-21T10:06:06.097Z,56.73
2019-03-21T10:07:06.192Z,57.02
2019-03-21T10:08:06.287Z,56.16
2019-03-21T10:09:06.381Z,56.45
2019-03-21T10:10:06.476Z,56.63
2019-03-21T10:11:06.567Z,56.35
2019-03-21T10:12:06.663Z,55.87
2019-03-21T10:13:06.762Z,55.96
2019-03-21T10:14:06.847Z,55.96
2019-03-21T10:15:07.319Z,55.30
2019-03-21T10:16:07.266Z,55.40
2019-03-21T10:17:07.198Z,55.40
2019-03-21T10:18:08.213Z,53.29
2019-03-21T10:19:07.321Z,52.36
2019-03-21T10:20:07.412Z,52.17
2019-03-21T10:21:07.513Z,50.90
2019-03-21T10:22:07.601Z,51.03
2019-03-21T10:23:07.695Z,51.21
2019-03-21T10:24:07.790Z,51.79
2019-03-21T10:25:07.885Z,51.89
2019-03-21T10:26:08.208Z,52.65
2019-03-21T10:27:08.050Z,52.65
2019-03-21T10:28:08.143Z,52.65
2019-03-21T10:29:08.244Z,52.17
2019-03-21T10:30:08.339Z,51.03
2019-03-21T10:31:08.431Z,49.49
2019-03-21T10:32:14.116Z,49.52
2019-03-21T10:33:08.616Z,49.14
2019-03-21T10:34:08.712Z,48.85
2019-03-21T10:35:08.806Z,48.66
2019-03-21T10:36:08.917Z,48.85
2019-03-21T10:37:09.045Z,48.57
2019-03-21T10:38:09.256Z,48.47
2019-03-21T10:39:09.230Z,47.99
2019-03-21T10:40:09.320Z,47.71
2019-03-21T10:41:10.376Z,47.99
2019-03-21T10:42:09.480Z,47.99
2019-03-21T10:43:10.672Z,48.18
2019-03-21T10:44:09.663Z,47.99
2019-03-21T10:45:09.760Z,47.82
2019-03-21T10:46:09.851Z,47.63
2019-03-21T10:47:09.945Z,47.44
2019-03-21T10:48:10.040Z,47.25
2019-03-21T10:49:10.126Z,47.92
2019-03-21T10:50:10.226Z,48.59
2019-03-21T10:51:10.322Z,48.21
2019-03-21T10:52:10.420Z,49.07
2019-03-21T10:53:10.518Z,48.88
2019-03-21T10:54:10.629Z,47.82
2019-03-21T10:55:10.708Z,48.11
2019-03-21T10:56:10.791Z,47.53
2019-03-21T10:57:10.891Z,47.34
2019-03-21T10:58:11.151Z,47.25
2019-03-21T10:59:11.197Z,48.11
2019-03-21T11:00:11.249Z,47.34
2019-03-21T11:01:11.310Z,47.25
2019-03-21T11:02:11.406Z,47.94
2019-03-21T11:03:11.505Z,47.94
2019-03-21T11:04:11.595Z,47.85
2019-03-21T11:05:11.691Z,47.94
2019-03-21T11:06:11.786Z,48.13
2019-03-21T11:07:11.883Z,48.04
2019-03-21T11:08:12.026Z,48.13
2019-03-21T11:09:12.073Z,48.13
2019-03-21T11:10:12.168Z,48.04
2019-03-21T11:11:12.264Z,48.71
2019-03-21T11:12:12.359Z,48.90
2019-03-21T11:13:12.455Z,48.16
2019-03-21T11:14:12.554Z,47.58
2019-03-21T11:15:12.646Z,47.18
2019-03-21T11:16:12.744Z,47.66
2019-03-21T11:17:12.842Z,47.68
2019-03-21T11:18:13.130Z,47.75
2019-03-21T11:19:13.327Z,47.30
2019-03-21T11:20:13.151Z,47.97
2019-03-21T11:21:13.203Z,47.49
2019-03-21T11:22:13.303Z,47.20
2019-03-21T11:23:13.401Z,47.30
2019-03-21T11:24:13.491Z,47.78
2019-03-21T11:25:13.585Z,47.87
2019-03-21T11:26:13.682Z,47.30
2019-03-21T11:27:13.779Z,47.20
2019-03-21T11:28:13.863Z,47.61
2019-03-21T11:29:13.968Z,47.22
2019-03-21T11:30:16.260Z,46.53
2019-03-21T11:31:14.163Z,46.36
2019-03-21T11:32:14.262Z,46.62
2019-03-21T11:33:14.360Z,46.75
2019-03-21T11:34:14.509Z,46.53
2019-03-21T11:35:14.569Z,47.22
2019-03-21T11:36:14.663Z,47.80
2019-03-21T11:37:14.758Z,47.32
2019-03-21T11:38:14.856Z,47.03
2019-03-21T11:39:15.022Z,47.32
2019-03-21T11:40:15.127Z,47.42
2019-03-21T11:41:15.172Z,47.34
2019-03-21T11:42:15.261Z,47.34
2019-03-21T11:43:15.358Z,46.48
2019-03-21T11:44:15.447Z,46.96
2019-03-21T11:45:15.549Z,47.03
2019-03-21T11:46:15.646Z,46.84
2019-03-21T11:47:15.742Z,46.75
2019-03-21T11:48:15.835Z,45.98
2019-03-21T11:49:15.947Z,45.21
2019-03-21T11:50:16.036Z,45.81
2019-03-21T11:51:16.121Z,45.31
2019-03-21T11:52:18.371Z,44.76
2019-03-21T11:53:16.314Z,43.87
2019-03-21T11:54:16.407Z,43.70
2019-03-21T11:55:16.518Z,44.09
2019-03-21T11:56:16.615Z,44.56
2019-03-21T11:57:16.716Z,43.90
2019-03-21T11:58:17.782Z,43.77
2019-03-21T11:59:16.901Z,43.87
2019-03-21T12:00:16.995Z,43.60
2019-03-21T12:01:17.106Z,44.66
2019-03-21T12:02:26.503Z,44.56
2019-03-21T12:03:17.275Z,44.56
2019-03-21T12:04:17.370Z,43.80
2019-03-21T12:05:17.466Z,43.51
2019-03-21T12:06:17.561Z,43.32
2019-03-21T12:07:17.655Z,44.47
2019-03-21T12:08:17.766Z,44.76
2019-03-21T12:09:17.838Z,44.54
2019-03-21T12:10:17.938Z,45.14
2019-03-21T12:11:18.033Z,45.72
2019-03-21T12:12:18.132Z,45.81
2019-03-21T12:13:18.215Z,45.43
2019-03-21T12:14:18.311Z,45.14
2019-03-21T12:15:18.416Z,44.56
2019-03-21T12:16:18.505Z,45.26
2019-03-21T12:17:18.603Z,45.83
2019-03-21T12:18:18.701Z,45.83
2019-03-21T12:19:18.797Z,45.54
2019-03-21T12:20:18.924Z,46.12
2019-03-21T12:21:19.048Z,45.83
2019-03-21T12:22:29.394Z,45.36
2019-03-21T12:23:19.181Z,46.03
2019-03-21T12:24:19.276Z,46.03
2019-03-21T12:25:19.373Z,45.93
2019-03-21T12:26:19.470Z,45.83
2019-03-21T12:27:19.569Z,45.54
2019-03-21T12:28:19.683Z,44.40
2019-03-21T12:29:19.778Z,44.59
2019-03-21T12:30:19.874Z,44.87
2019-03-21T12:31:19.970Z,45.23
2019-03-21T12:32:20.074Z,45.81
2019-03-21T12:33:20.169Z,46.00
2019-03-21T12:34:20.263Z,46.10
2019-03-21T12:35:20.365Z,46.70
2019-03-21T12:36:20.459Z,46.79
2019-03-21T12:37:20.559Z,45.93
2019-03-21T12:38:20.656Z,45.62
2019-03-21T12:39:20.753Z,46.00
2019-03-21T12:40:20.853Z,46.36
2019-03-21T12:41:20.945Z,47.34
2019-03-21T12:42:21.101Z,47.22
2019-03-21T12:43:21.150Z,47.71
2019-03-21T12:44:21.251Z,47.42
2019-03-21T12:45:21.347Z,47.51
2019-03-21T12:46:21.470Z,47.80
2019-03-21T12:47:30.791Z,47.99
2019-03-21T12:48:21.637Z,47.89
2019-03-21T12:49:21.734Z,48.18
2019-03-21T12:50:21.840Z,48.28
2019-03-21T12:51:21.925Z,48.18
2019-03-21T12:52:22.023Z,48.28
2019-03-21T12:53:22.117Z,48.18
2019-03-21T12:54:22.214Z,48.28
2019-03-21T12:55:22.310Z,48.11
2019-03-21T12:56:22.498Z,48.40